sensor_id;sensor_type;location;lat;lon;timestamp;temperature;humidity
71627;DHT22;59475;52.464;13.590;2023-03-25T00:01:58;8.34;88.98
71627;DHT22;59475;52.464;13.590;2023-03-25T00:04:23;8.36;89.10
71627;DHT22;59475;52.464;13.590;2023-03-25T00:06:53;8.37;89.11
71627;DHT22;59475;52.464;13.590;2023-03-25T00:09:19;8.34;89.27
71627;DHT22;59475;52.464;13.590;2023-03-25T00:11:44;8.34;89.18
71627;DHT22;59475;52.464;13.590;2023-03-25T00:14:10;8.30;89.36
71627;DHT22;59475;52.464;13.590;2023-03-25T00:16:36;8.34;89.34
71627;DHT22;59475;52.464;13.590;2023-03-25T00:19:02;8.30;89.42
71627;DHT22;59475;52.464;13.590;2023-03-25T00:21:27;8.26;89.38
71627;DHT22;59475;52.464;13.590;2023-03-25T00:23:52;8.26;89.45
71627;DHT22;59475;52.464;13.590;2023-03-25T00:26:18;8.23;89.48
71627;DHT22;59475;52.464;13.590;2023-03-25T00:28:43;8.20;89.58
71627;DHT22;59475;52.464;13.590;2023-03-25T00:31:13;8.19;89.47
71627;DHT22;59475;52.464;13.590;2023-03-25T00:33:38;8.19;89.43
71627;DHT22;59475;52.464;13.590;2023-03-25T00:36:07;8.19;89.53
71627;DHT22;59475;52.464;13.590;2023-03-25T00:38:33;8.17;89.52
71627;DHT22;59475;52.464;13.590;2023-03-25T00:41:15;8.16;89.53
71627;DHT22;59475;52.464;13.590;2023-03-25T00:43:59;8.17;89.53
71627;DHT22;59475;52.464;13.590;2023-03-25T00:46:28;8.14;89.62
71627;DHT22;59475;52.464;13.590;2023-03-25T00:48:54;8.10;89.60
71627;DHT22;59475;52.464;13.590;2023-03-25T00:51:22;8.13;89.58
71627;DHT22;59475;52.464;13.590;2023-03-25T00:53:53;8.09;89.65
71627;DHT22;59475;52.464;13.590;2023-03-25T00:56:20;8.09;89.61
71627;DHT22;59475;52.464;13.590;2023-03-25T00:58:45;8.09;89.59
71627;DHT22;59475;52.464;13.590;2023-03-25T01:01:13;8.14;89.48
71627;DHT22;59475;52.464;13.590;2023-03-25T01:03:40;8.12;89.39
71627;DHT22;59475;52.464;13.590;2023-03-25T01:06:16;8.14;89.29
71627;DHT22;59475;52.464;13.590;2023-03-25T01:08:43;8.13;89.34
71627;DHT22;59475;52.464;13.590;2023-03-25T01:11:20;8.14;89.24
71627;DHT22;59475;52.464;13.590;2023-03-25T01:13:46;8.10;89.29
71627;DHT22;59475;52.464;13.590;2023-03-25T01:16:12;8.05;89.45
71627;DHT22;59475;52.464;13.590;2023-03-25T01:18:37;8.03;89.52
71627;DHT22;59475;52.464;13.590;2023-03-25T01:21:07;8.02;89.56
71627;DHT22;59475;52.464;13.590;2023-03-25T01:23:33;7.96;89.64
71627;DHT22;59475;52.464;13.590;2023-03-25T01:25:59;7.90;89.63
71627;DHT22;59475;52.464;13.590;2023-03-25T01:28:31;7.96;89.71
71627;DHT22;59475;52.464;13.590;2023-03-25T01:31:07;8.00;89.69
71627;DHT22;59475;52.464;13.590;2023-03-25T01:33:33;7.95;89.77
71627;DHT22;59475;52.464;13.590;2023-03-25T01:35:59;7.90;89.82
71627;DHT22;59475;52.464;13.590;2023-03-25T01:38:26;7.90;89.98
71627;DHT22;59475;52.464;13.590;2023-03-25T01:40:52;7.95;89.85
71627;DHT22;59475;52.464;13.590;2023-03-25T01:43:19;8.00;89.72
71627;DHT22;59475;52.464;13.590;2023-03-25T01:45:44;7.99;89.65
71627;DHT22;59475;52.464;13.590;2023-03-25T01:50:48;7.95;89.70
71627;DHT22;59475;52.464;13.590;2023-03-25T01:53:14;7.92;89.84
71627;DHT22;59475;52.464;13.590;2023-03-25T01:55:41;7.92;89.75
71627;DHT22;59475;52.464;13.590;2023-03-25T01:58:10;7.92;89.79
71627;DHT22;59475;52.464;13.590;2023-03-25T02:00:41;7.89;89.97
71627;DHT22;59475;52.464;13.590;2023-03-25T02:03:10;7.83;90.01
71627;DHT22;59475;52.464;13.590;2023-03-25T02:05:45;7.89;90.07
71627;DHT22;59475;52.464;13.590;2023-03-25T02:08:12;7.90;90.01
71627;DHT22;59475;52.464;13.590;2023-03-25T02:10:41;7.89;90.05
71627;DHT22;59475;52.464;13.590;2023-03-25T02:13:09;7.88;90.13
71627;DHT22;59475;52.464;13.590;2023-03-25T02:15:55;7.88;90.08
71627;DHT22;59475;52.464;13.590;2023-03-25T02:20:58;7.96;90.07
71627;DHT22;59475;52.464;13.590;2023-03-25T02:23:55;7.95;90.08
71627;DHT22;59475;52.464;13.590;2023-03-25T02:38:48;8.10;89.84
71627;DHT22;59475;52.464;13.590;2023-03-25T02:41:24;8.13;89.77
71627;DHT22;59475;52.464;13.590;2023-03-25T02:46:32;8.14;89.94
71627;DHT22;59475;52.464;13.590;2023-03-25T02:49:08;8.19;89.87
71627;DHT22;59475;52.464;13.590;2023-03-25T02:51:57;8.17;89.88
71627;DHT22;59475;52.464;13.590;2023-03-25T02:54:24;8.22;89.79
71627;DHT22;59475;52.464;13.590;2023-03-25T02:56:51;8.23;89.69
71627;DHT22;59475;52.464;13.590;2023-03-25T02:59:22;8.23;89.60
71627;DHT22;59475;52.464;13.590;2023-03-25T03:01:48;8.30;89.63
71627;DHT22;59475;52.464;13.590;2023-03-25T03:04:14;8.34;89.51
71627;DHT22;59475;52.464;13.590;2023-03-25T03:06:41;8.34;89.53
71627;DHT22;59475;52.464;13.590;2023-03-25T03:14:41;8.33;89.51
71627;DHT22;59475;52.464;13.590;2023-03-25T03:17:17;8.32;89.60
71627;DHT22;59475;52.464;13.590;2023-03-25T03:19:49;8.32;89.63
71627;DHT22;59475;52.464;13.590;2023-03-25T03:25:18;8.40;89.32
71627;DHT22;59475;52.464;13.590;2023-03-25T03:27:52;8.45;89.20
71627;DHT22;59475;52.464;13.590;2023-03-25T03:30:47;8.48;89.13
71627;DHT22;59475;52.464;13.590;2023-03-25T03:33:24;8.53;88.92
71627;DHT22;59475;52.464;13.590;2023-03-25T03:35:59;8.62;88.76
71627;DHT22;59475;52.464;13.590;2023-03-25T03:38:30;8.64;88.68
71627;DHT22;59475;52.464;13.590;2023-03-25T03:41:03;8.61;88.75
71627;DHT22;59475;52.464;13.590;2023-03-25T03:44:07;8.69;88.68
71627;DHT22;59475;52.464;13.590;2023-03-25T03:46:36;8.72;88.90
71627;DHT22;59475;52.464;13.590;2023-03-25T03:49:08;8.75;88.97
71627;DHT22;59475;52.464;13.590;2023-03-25T03:51:36;8.73;89.06
71627;DHT22;59475;52.464;13.590;2023-03-25T03:54:07;8.78;89.26
71627;DHT22;59475;52.464;13.590;2023-03-25T03:56:40;8.79;89.17
71627;DHT22;59475;52.464;13.590;2023-03-25T03:59:18;8.81;89.43
71627;DHT22;59475;52.464;13.590;2023-03-25T04:01:46;8.76;89.84
71627;DHT22;59475;52.464;13.590;2023-03-25T04:04:21;8.75;90.33
71627;DHT22;59475;52.464;13.590;2023-03-25T04:07:00;8.69;90.88
71627;DHT22;59475;52.464;13.590;2023-03-25T04:12:26;8.61;91.60
71627;DHT22;59475;52.464;13.590;2023-03-25T04:14:55;8.54;91.66
71627;DHT22;59475;52.464;13.590;2023-03-25T04:17:23;8.54;91.72
71627;DHT22;59475;52.464;13.590;2023-03-25T04:19:49;8.47;92.12
71627;DHT22;59475;52.464;13.590;2023-03-25T04:22:18;8.48;92.02
71627;DHT22;59475;52.464;13.590;2023-03-25T04:24:44;8.48;91.97
71627;DHT22;59475;52.464;13.590;2023-03-25T04:27:17;8.50;92.48
71627;DHT22;59475;52.464;13.590;2023-03-25T04:29:43;8.41;92.37
71627;DHT22;59475;52.464;13.590;2023-03-25T04:32:12;8.45;92.18
71627;DHT22;59475;52.464;13.590;2023-03-25T04:34:38;8.44;92.33
71627;DHT22;59475;52.464;13.590;2023-03-25T04:37:04;8.41;92.47
71627;DHT22;59475;52.464;13.590;2023-03-25T04:39:29;8.45;92.09
71627;DHT22;59475;52.464;13.590;2023-03-25T04:41:57;8.44;92.10
71627;DHT22;59475;52.464;13.590;2023-03-25T04:44:30;8.47;92.23
71627;DHT22;59475;52.464;13.590;2023-03-25T04:47:04;8.45;91.95
71627;DHT22;59475;52.464;13.590;2023-03-25T04:49:30;8.54;91.74
71627;DHT22;59475;52.464;13.590;2023-03-25T04:51:55;8.54;91.90
71627;DHT22;59475;52.464;13.590;2023-03-25T04:54:22;8.51;91.95
71627;DHT22;59475;52.464;13.590;2023-03-25T04:56:48;8.53;91.60
71627;DHT22;59475;52.464;13.590;2023-03-25T04:59:18;8.54;91.48
71627;DHT22;59475;52.464;13.590;2023-03-25T05:01:45;8.51;91.47
71627;DHT22;59475;52.464;13.590;2023-03-25T05:04:13;8.47;91.47
71627;DHT22;59475;52.464;13.590;2023-03-25T05:06:43;8.45;91.18
71627;DHT22;59475;52.464;13.590;2023-03-25T05:09:13;8.43;91.19
71627;DHT22;59475;52.464;13.590;2023-03-25T05:11:40;8.38;91.23
71627;DHT22;59475;52.464;13.590;2023-03-25T05:14:06;8.37;91.27
71627;DHT22;59475;52.464;13.590;2023-03-25T05:16:32;8.33;91.13
71627;DHT22;59475;52.464;13.590;2023-03-25T05:18:58;8.37;91.09
71627;DHT22;59475;52.464;13.590;2023-03-25T05:21:23;8.33;91.03
71627;DHT22;59475;52.464;13.590;2023-03-25T05:23:49;8.30;91.13
71627;DHT22;59475;52.464;13.590;2023-03-25T05:26:15;8.26;90.99
71627;DHT22;59475;52.464;13.590;2023-03-25T05:28:41;8.27;90.74
71627;DHT22;59475;52.464;13.590;2023-03-25T05:31:06;8.23;90.74
71627;DHT22;59475;52.464;13.590;2023-03-25T05:33:36;8.24;90.50
71627;DHT22;59475;52.464;13.590;2023-03-25T05:36:16;8.27;90.17
71627;DHT22;59475;52.464;13.590;2023-03-25T05:38:41;8.30;90.14
71627;DHT22;59475;52.464;13.590;2023-03-25T05:41:12;8.32;90.04
71627;DHT22;59475;52.464;13.590;2023-03-25T05:43:43;8.33;89.82
71627;DHT22;59475;52.464;13.590;2023-03-25T05:46:16;8.29;89.82
71627;DHT22;59475;52.464;13.590;2023-03-25T05:48:42;8.34;89.56
71627;DHT22;59475;52.464;13.590;2023-03-25T05:51:14;8.33;89.83
71627;DHT22;59475;52.464;13.590;2023-03-25T05:53:44;8.41;89.56
71627;DHT22;59475;52.464;13.590;2023-03-25T05:56:14;8.60;89.05
71627;DHT22;59475;52.464;13.590;2023-03-25T05:58:42;8.76;88.85
71627;DHT22;59475;52.464;13.590;2023-03-25T06:01:10;8.91;88.33
71627;DHT22;59475;52.464;13.590;2023-03-25T06:03:39;9.00;87.68
71627;DHT22;59475;52.464;13.590;2023-03-25T06:06:06;9.09;87.36
71627;DHT22;59475;52.464;13.590;2023-03-25T06:08:38;9.16;87.08
71627;DHT22;59475;52.464;13.590;2023-03-25T06:11:04;9.16;86.74
71627;DHT22;59475;52.464;13.590;2023-03-25T06:13:29;9.23;86.70
71627;DHT22;59475;52.464;13.590;2023-03-25T06:15:58;9.16;86.17
71627;DHT22;59475;52.464;13.590;2023-03-25T06:18:24;9.17;86.37
71627;DHT22;59475;52.464;13.590;2023-03-25T06:20:52;9.24;85.35
71627;DHT22;59475;52.464;13.590;2023-03-25T06:23:21;9.24;86.03
71627;DHT22;59475;52.464;13.590;2023-03-25T06:25:49;9.30;84.98
71627;DHT22;59475;52.464;13.590;2023-03-25T06:28:15;9.36;85.27
71627;DHT22;59475;52.464;13.590;2023-03-25T06:30:46;9.38;84.96
71627;DHT22;59475;52.464;13.590;2023-03-25T06:33:13;9.37;84.79
71627;DHT22;59475;52.464;13.590;2023-03-25T06:35:40;9.41;84.89
71627;DHT22;59475;52.464;13.590;2023-03-25T06:38:09;9.44;84.50
71627;DHT22;59475;52.464;13.590;2023-03-25T06:40:36;9.44;84.31
71627;DHT22;59475;52.464;13.590;2023-03-25T06:43:05;9.43;84.68
71627;DHT22;59475;52.464;13.590;2023-03-25T06:45:31;9.50;84.89
71627;DHT22;59475;52.464;13.590;2023-03-25T06:47:58;9.47;85.04
71627;DHT22;59475;52.464;13.590;2023-03-25T06:50:23;9.55;84.92
71627;DHT22;59475;52.464;13.590;2023-03-25T06:52:49;9.55;84.82
71627;DHT22;59475;52.464;13.590;2023-03-25T06:55:14;9.54;85.73
71627;DHT22;59475;52.464;13.590;2023-03-25T06:57:40;9.57;84.84
71627;DHT22;59475;52.464;13.590;2023-03-25T07:00:07;9.59;85.38
71627;DHT22;59475;52.464;13.590;2023-03-25T07:02:33;9.58;85.72
71627;DHT22;59475;52.464;13.590;2023-03-25T07:04:58;9.68;85.07
71627;DHT22;59475;52.464;13.590;2023-03-25T07:07:23;9.75;84.80
71627;DHT22;59475;52.464;13.590;2023-03-25T07:09:50;9.78;84.64
71627;DHT22;59475;52.464;13.590;2023-03-25T07:12:16;9.73;84.54
71627;DHT22;59475;52.464;13.590;2023-03-25T07:14:41;9.75;84.53
71627;DHT22;59475;52.464;13.590;2023-03-25T07:17:08;9.91;84.50
71627;DHT22;59475;52.464;13.590;2023-03-25T07:19:33;10.19;83.42
71627;DHT22;59475;52.464;13.590;2023-03-25T07:21:59;10.43;83.61
71627;DHT22;59475;52.464;13.590;2023-03-25T07:24:24;10.75;82.46
71627;DHT22;59475;52.464;13.590;2023-03-25T07:26:50;11.09;81.31
71627;DHT22;59475;52.464;13.590;2023-03-25T07:29:15;11.37;79.23
71627;DHT22;59475;52.464;13.590;2023-03-25T07:31:41;11.57;79.18
71627;DHT22;59475;52.464;13.590;2023-03-25T07:34:06;11.81;78.60
71627;DHT22;59475;52.464;13.590;2023-03-25T07:36:32;12.11;77.36
71627;DHT22;59475;52.464;13.590;2023-03-25T07:38:58;12.45;76.10
71627;DHT22;59475;52.464;13.590;2023-03-25T07:41:23;12.77;74.86
71627;DHT22;59475;52.464;13.590;2023-03-25T07:43:48;12.92;74.42
71627;DHT22;59475;52.464;13.590;2023-03-25T07:46:14;12.53;74.22
71627;DHT22;59475;52.464;13.590;2023-03-25T07:48:39;12.43;74.88
71627;DHT22;59475;52.464;13.590;2023-03-25T07:51:05;12.63;74.55
71627;DHT22;59475;52.464;13.590;2023-03-25T07:53:32;12.71;74.39
71627;DHT22;59475;52.464;13.590;2023-03-25T07:55:58;12.85;73.19
71627;DHT22;59475;52.464;13.590;2023-03-25T07:58:23;13.07;73.05
71627;DHT22;59475;52.464;13.590;2023-03-25T08:00:49;13.11;72.02
71627;DHT22;59475;52.464;13.590;2023-03-25T08:03:14;13.19;71.54
71627;DHT22;59475;52.464;13.590;2023-03-25T08:05:45;13.65;70.13
71627;DHT22;59475;52.464;13.590;2023-03-25T08:08:14;13.50;69.29
71627;DHT22;59475;52.464;13.590;2023-03-25T08:10:44;13.36;68.60
71627;DHT22;59475;52.464;13.590;2023-03-25T08:13:11;12.98;69.18
71627;DHT22;59475;52.464;13.590;2023-03-25T08:15:37;12.61;70.17
71627;DHT22;59475;52.464;13.590;2023-03-25T08:18:03;12.53;70.92
71627;DHT22;59475;52.464;13.590;2023-03-25T08:20:30;12.28;70.87
71627;DHT22;59475;52.464;13.590;2023-03-25T08:22:56;12.14;71.25
71627;DHT22;59475;52.464;13.590;2023-03-25T08:25:22;12.16;72.03
71627;DHT22;59475;52.464;13.590;2023-03-25T08:27:48;12.26;71.74
71627;DHT22;59475;52.464;13.590;2023-03-25T08:30:14;12.59;70.53
71627;DHT22;59475;52.464;13.590;2023-03-25T08:32:40;12.80;68.01
71627;DHT22;59475;52.464;13.590;2023-03-25T08:35:06;12.91;69.81
71627;DHT22;59475;52.464;13.590;2023-03-25T08:37:32;12.80;70.43
71627;DHT22;59475;52.464;13.590;2023-03-25T08:40:05;12.68;68.01
71627;DHT22;59475;52.464;13.590;2023-03-25T08:42:34;12.73;68.04
71627;DHT22;59475;52.464;13.590;2023-03-25T08:45:00;12.67;70.25
71627;DHT22;59475;52.464;13.590;2023-03-25T08:47:25;12.49;70.21
71627;DHT22;59475;52.464;13.590;2023-03-25T08:49:51;12.39;70.72
71627;DHT22;59475;52.464;13.590;2023-03-25T08:52:16;12.29;70.63
71627;DHT22;59475;52.464;13.590;2023-03-25T08:54:42;12.49;71.18
71627;DHT22;59475;52.464;13.590;2023-03-25T08:57:07;12.46;68.30
71627;DHT22;59475;52.464;13.590;2023-03-25T08:59:32;12.50;69.60
71627;DHT22;59475;52.464;13.590;2023-03-25T09:01:58;12.61;69.90
71627;DHT22;59475;52.464;13.590;2023-03-25T09:04:24;13.09;68.15
71627;DHT22;59475;52.464;13.590;2023-03-25T09:06:50;13.15;67.87
71627;DHT22;59475;52.464;13.590;2023-03-25T09:09:16;12.76;68.71
71627;DHT22;59475;52.464;13.590;2023-03-25T09:11:42;12.53;69.10
71627;DHT22;59475;52.464;13.590;2023-03-25T09:14:08;12.47;69.94
71627;DHT22;59475;52.464;13.590;2023-03-25T09:16:34;12.35;68.45
71627;DHT22;59475;52.464;13.590;2023-03-25T09:19:00;12.57;66.83
71627;DHT22;59475;52.464;13.590;2023-03-25T09:21:25;12.53;67.34
71627;DHT22;59475;52.464;13.590;2023-03-25T09:23:51;12.46;68.11
71627;DHT22;59475;52.464;13.590;2023-03-25T09:26:17;12.42;67.81
71627;DHT22;59475;52.464;13.590;2023-03-25T09:28:42;12.36;68.13
71627;DHT22;59475;52.464;13.590;2023-03-25T09:31:07;12.24;68.04
71627;DHT22;59475;52.464;13.590;2023-03-25T09:33:34;12.16;67.91
71627;DHT22;59475;52.464;13.590;2023-03-25T09:35:59;12.14;68.16
71627;DHT22;59475;52.464;13.590;2023-03-25T09:38:25;12.08;68.15
71627;DHT22;59475;52.464;13.590;2023-03-25T09:40:50;12.02;68.40
71627;DHT22;59475;52.464;13.590;2023-03-25T09:46:29;12.05;68.23
71627;DHT22;59475;52.464;13.590;2023-03-25T09:48:56;12.08;67.36
71627;DHT22;59475;52.464;13.590;2023-03-25T09:51:30;12.01;67.49
71627;DHT22;59475;52.464;13.590;2023-03-25T09:56:42;12.24;67.86
71627;DHT22;59475;52.464;13.590;2023-03-25T09:59:20;12.21;66.17
71627;DHT22;59475;52.464;13.590;2023-03-25T10:08:36;12.50;63.62
71627;DHT22;59475;52.464;13.590;2023-03-25T10:10:54;12.90;63.33
71627;DHT22;59475;52.464;13.590;2023-03-25T10:21:26;13.26;61.69
71627;DHT22;59475;52.464;13.590;2023-03-25T10:24:25;13.14;61.08
71627;DHT22;59475;52.464;13.590;2023-03-25T10:27:05;13.07;60.37
71627;DHT22;59475;52.464;13.590;2023-03-25T10:32:00;12.83;61.75
71627;DHT22;59475;52.464;13.590;2023-03-25T10:34:40;12.73;62.21
71627;DHT22;59475;52.464;13.590;2023-03-25T10:37:12;12.64;64.13
71627;DHT22;59475;52.464;13.590;2023-03-25T10:39:42;12.77;63.94
71627;DHT22;59475;52.464;13.590;2023-03-25T10:42:23;13.28;62.96
71627;DHT22;59475;52.464;13.590;2023-03-25T10:44:50;13.95;61.54
71627;DHT22;59475;52.464;13.590;2023-03-25T10:47:23;14.12;60.28
71627;DHT22;59475;52.464;13.590;2023-03-25T10:49:51;13.98;60.21
71627;DHT22;59475;52.464;13.590;2023-03-25T10:52:17;13.84;59.40
71627;DHT22;59475;52.464;13.590;2023-03-25T10:54:49;13.80;58.26
71627;DHT22;59475;52.464;13.590;2023-03-25T10:57:20;14.31;57.26
71627;DHT22;59475;52.464;13.590;2023-03-25T11:00:13;14.26;55.69
71627;DHT22;59475;52.464;13.590;2023-03-25T11:02:46;14.15;56.27
71627;DHT22;59475;52.464;13.590;2023-03-25T11:05:13;13.81;57.04
71627;DHT22;59475;52.464;13.590;2023-03-25T11:07:45;13.70;58.21
71627;DHT22;59475;52.464;13.590;2023-03-25T11:12:39;13.98;58.79
71627;DHT22;59475;52.464;13.590;2023-03-25T11:15:36;14.60;55.23
71627;DHT22;59475;52.464;13.590;2023-03-25T11:18:34;14.43;55.35
71627;DHT22;59475;52.464;13.590;2023-03-25T11:21:07;14.43;55.58
71627;DHT22;59475;52.464;13.590;2023-03-25T11:23:35;14.28;55.44
71627;DHT22;59475;52.464;13.590;2023-03-25T11:26:26;14.50;57.02
71627;DHT22;59475;52.464;13.590;2023-03-25T11:28:53;14.79;56.21
71627;DHT22;59475;52.464;13.590;2023-03-25T11:31:24;14.65;56.01
71627;DHT22;59475;52.464;13.590;2023-03-25T11:34:20;14.87;56.18
71627;DHT22;59475;52.464;13.590;2023-03-25T11:36:51;14.69;56.05
71627;DHT22;59475;52.464;13.590;2023-03-25T11:41:47;15.14;55.10
71627;DHT22;59475;52.464;13.590;2023-03-25T11:44:40;15.21;54.95
71627;DHT22;59475;52.464;13.590;2023-03-25T11:47:08;15.39;54.53
71627;DHT22;59475;52.464;13.590;2023-03-25T11:49:36;15.70;53.90
71627;DHT22;59475;52.464;13.590;2023-03-25T11:52:07;15.31;54.94
71627;DHT22;59475;52.464;13.590;2023-03-25T11:54:35;15.06;56.02
71627;DHT22;59475;52.464;13.590;2023-03-25T11:57:02;14.55;57.53
71627;DHT22;59475;52.464;13.590;2023-03-25T11:59:38;14.20;58.76
71627;DHT22;59475;52.464;13.590;2023-03-25T12:02:24;13.71;62.60
71627;DHT22;59475;52.464;13.590;2023-03-25T12:05:03;12.52;72.12
71627;DHT22;59475;52.464;13.590;2023-03-25T12:07:40;12.25;74.45
71627;DHT22;59475;52.464;13.590;2023-03-25T12:10:06;12.32;76.65
71627;DHT22;59475;52.464;13.590;2023-03-25T12:15:18;12.21;72.53
71627;DHT22;59475;52.464;13.590;2023-03-25T12:27:28;12.54;67.42
71627;DHT22;59475;52.464;13.590;2023-03-25T12:30:06;12.85;66.61
71627;DHT22;59475;52.464;13.590;2023-03-25T12:43:29;13.15;63.72
71627;DHT22;59475;52.464;13.590;2023-03-25T12:46:19;13.16;63.70
71627;DHT22;59475;52.464;13.590;2023-03-25T12:56:59;12.88;67.17
71627;DHT22;59475;52.464;13.590;2023-03-25T13:05:26;13.66;64.21
71627;DHT22;59475;52.464;13.590;2023-03-25T13:07:57;13.70;63.36
71627;DHT22;59475;52.464;13.590;2023-03-25T13:10:30;13.93;63.28
71627;DHT22;59475;52.464;13.590;2023-03-25T13:12:59;14.07;63.17
71627;DHT22;59475;52.464;13.590;2023-03-25T13:15:35;14.17;60.86
71627;DHT22;59475;52.464;13.590;2023-03-25T13:20:59;13.98;60.93
71627;DHT22;59475;52.464;13.590;2023-03-25T13:23:27;13.83;60.82
71627;DHT22;59475;52.464;13.590;2023-03-25T13:26:07;13.66;61.48
71627;DHT22;59475;52.464;13.590;2023-03-25T13:28:48;13.47;61.91
71627;DHT22;59475;52.464;13.590;2023-03-25T13:31:20;13.40;62.38
71627;DHT22;59475;52.464;13.590;2023-03-25T13:33:49;13.16;64.91
71627;DHT22;59475;52.464;13.590;2023-03-25T13:36:37;12.59;67.06
71627;DHT22;59475;52.464;13.590;2023-03-25T13:39:13;12.04;71.16
71627;DHT22;59475;52.464;13.590;2023-03-25T13:46:50;11.18;79.20
71627;DHT22;59475;52.464;13.590;2023-03-25T13:52:12;10.30;80.37
71627;DHT22;59475;52.464;13.590;2023-03-25T13:54:43;10.17;83.00
71627;DHT22;59475;52.464;13.590;2023-03-25T14:13:38;9.52;84.28
71627;DHT22;59475;52.464;13.590;2023-03-25T14:16:07;9.44;79.88
71627;DHT22;59475;52.464;13.590;2023-03-25T14:18:47;9.37;81.61
71627;DHT22;59475;52.464;13.590;2023-03-25T14:23:45;9.47;83.19
71627;DHT22;59475;52.464;13.590;2023-03-25T14:26:11;9.51;82.66
71627;DHT22;59475;52.464;13.590;2023-03-25T14:28:42;9.52;83.64
71627;DHT22;59475;52.464;13.590;2023-03-25T14:31:24;9.59;82.59
71627;DHT22;59475;52.464;13.590;2023-03-25T14:39:11;9.81;83.19
71627;DHT22;59475;52.464;13.590;2023-03-25T14:44:26;10.02;80.87
71627;DHT22;59475;52.464;13.590;2023-03-25T14:47:02;10.14;80.09
71627;DHT22;59475;52.464;13.590;2023-03-25T14:52:37;10.30;79.91
71627;DHT22;59475;52.464;13.590;2023-03-25T14:55:30;10.36;81.36
71627;DHT22;59475;52.464;13.590;2023-03-25T14:58:19;10.51;79.86
71627;DHT22;59475;52.464;13.590;2023-03-25T15:00:56;10.61;78.40
71627;DHT22;59475;52.464;13.590;2023-03-25T15:03:33;10.68;79.98
71627;DHT22;59475;52.464;13.590;2023-03-25T15:06:00;10.74;78.71
71627;DHT22;59475;52.464;13.590;2023-03-25T15:08:33;10.75;79.13
71627;DHT22;59475;52.464;13.590;2023-03-25T15:11:10;10.92;78.73
71627;DHT22;59475;52.464;13.590;2023-03-25T15:13:42;11.01;78.66
71627;DHT22;59475;52.464;13.590;2023-03-25T15:19:00;11.25;77.54
71627;DHT22;59475;52.464;13.590;2023-03-25T15:21:30;11.32;77.42
71627;DHT22;59475;52.464;13.590;2023-03-25T15:24:01;11.39;76.61
71627;DHT22;59475;52.464;13.590;2023-03-25T15:26:40;11.54;75.80
71627;DHT22;59475;52.464;13.590;2023-03-25T15:37:37;11.50;73.36
71627;DHT22;59475;52.464;13.590;2023-03-25T15:56:43;11.49;71.88
71627;DHT22;59475;52.464;13.590;2023-03-25T16:01:44;11.40;71.89
71627;DHT22;59475;52.464;13.590;2023-03-25T16:04:34;11.32;72.37
71627;DHT22;59475;52.464;13.590;2023-03-25T16:07:03;11.23;71.69
71627;DHT22;59475;52.464;13.590;2023-03-25T16:09:29;11.20;71.59
71627;DHT22;59475;52.464;13.590;2023-03-25T16:12:00;11.15;71.99
71627;DHT22;59475;52.464;13.590;2023-03-25T16:14:31;11.12;72.39
71627;DHT22;59475;52.464;13.590;2023-03-25T16:16:59;11.05;73.27
71627;DHT22;59475;52.464;13.590;2023-03-25T16:19:41;10.96;73.96
71627;DHT22;59475;52.464;13.590;2023-03-25T16:22:29;11.01;73.40
71627;DHT22;59475;52.464;13.590;2023-03-25T16:24:58;10.99;74.09
71627;DHT22;59475;52.464;13.590;2023-03-25T16:27:29;11.02;74.31
71627;DHT22;59475;52.464;13.590;2023-03-25T16:29:56;11.04;74.85
71627;DHT22;59475;52.464;13.590;2023-03-25T16:32:24;10.99;75.19
71627;DHT22;59475;52.464;13.590;2023-03-25T16:34:50;10.91;76.34
71627;DHT22;59475;52.464;13.590;2023-03-25T16:37:18;10.79;77.76
71627;DHT22;59475;52.464;13.590;2023-03-25T16:39:52;10.58;80.35
71627;DHT22;59475;52.464;13.590;2023-03-25T16:42:25;10.33;82.26
71627;DHT22;59475;52.464;13.590;2023-03-25T16:44:51;9.98;84.56
71627;DHT22;59475;52.464;13.590;2023-03-25T16:47:17;9.79;84.79
71627;DHT22;59475;52.464;13.590;2023-03-25T16:49:47;9.73;85.78
71627;DHT22;59475;52.464;13.590;2023-03-25T16:52:19;9.68;86.79
71627;DHT22;59475;52.464;13.590;2023-03-25T16:57:44;9.52;87.30
71627;DHT22;59475;52.464;13.590;2023-03-25T17:00:17;9.46;87.54
71627;DHT22;59475;52.464;13.590;2023-03-25T17:02:44;9.47;87.15
71627;DHT22;59475;52.464;13.590;2023-03-25T17:05:24;9.41;87.32
71627;DHT22;59475;52.464;13.590;2023-03-25T17:08:01;9.33;88.19
71627;DHT22;59475;52.464;13.590;2023-03-25T17:10:30;9.30;88.11
71627;DHT22;59475;52.464;13.590;2023-03-25T17:13:02;9.26;88.90
71627;DHT22;59475;52.464;13.590;2023-03-25T17:15:30;9.26;88.45
71627;DHT22;59475;52.464;13.590;2023-03-25T17:17:59;9.27;88.19
71627;DHT22;59475;52.464;13.590;2023-03-25T17:20:38;9.30;88.11
71627;DHT22;59475;52.464;13.590;2023-03-25T17:23:14;9.29;87.68
71627;DHT22;59475;52.464;13.590;2023-03-25T17:25:56;9.31;87.43
71627;DHT22;59475;52.464;13.590;2023-03-25T17:34:12;9.37;87.50
71627;DHT22;59475;52.464;13.590;2023-03-25T17:36:40;9.40;87.79
71627;DHT22;59475;52.464;13.590;2023-03-25T17:39:21;9.41;87.75
71627;DHT22;59475;52.464;13.590;2023-03-25T17:41:59;9.50;88.31
71627;DHT22;59475;52.464;13.590;2023-03-25T17:44:34;9.54;87.81
71627;DHT22;59475;52.464;13.590;2023-03-25T17:47:01;9.52;87.67
71627;DHT22;59475;52.464;13.590;2023-03-25T17:49:27;9.55;87.37
71627;DHT22;59475;52.464;13.590;2023-03-25T17:51:52;9.52;87.31
71627;DHT22;59475;52.464;13.590;2023-03-25T17:54:17;9.51;86.86
71627;DHT22;59475;52.464;13.590;2023-03-25T17:56:43;9.48;87.83
71627;DHT22;59475;52.464;13.590;2023-03-25T17:59:18;9.46;88.13
71627;DHT22;59475;52.464;13.590;2023-03-25T18:01:44;9.41;88.19
71627;DHT22;59475;52.464;13.590;2023-03-25T18:04:11;9.38;88.81
71627;DHT22;59475;52.464;13.590;2023-03-25T18:06:37;9.41;88.20
71627;DHT22;59475;52.464;13.590;2023-03-25T18:09:05;9.38;88.01
71627;DHT22;59475;52.464;13.590;2023-03-25T18:11:31;9.44;87.86
71627;DHT22;59475;52.464;13.590;2023-03-25T18:13:56;9.44;88.20
71627;DHT22;59475;52.464;13.590;2023-03-25T18:16:23;9.38;88.64
71627;DHT22;59475;52.464;13.590;2023-03-25T18:18:48;9.33;88.64
71627;DHT22;59475;52.464;13.590;2023-03-25T18:21:16;9.34;88.64
71627;DHT22;59475;52.464;13.590;2023-03-25T18:23:42;9.26;88.80
71627;DHT22;59475;52.464;13.590;2023-03-25T18:26:13;9.23;88.71
71627;DHT22;59475;52.464;13.590;2023-03-25T18:28:40;9.22;88.54
71627;DHT22;59475;52.464;13.590;2023-03-25T18:31:12;9.16;88.84
71627;DHT22;59475;52.464;13.590;2023-03-25T18:33:42;9.09;89.10
71627;DHT22;59475;52.464;13.590;2023-03-25T18:36:08;9.08;88.94
71627;DHT22;59475;52.464;13.590;2023-03-25T18:38:34;9.05;88.96
71627;DHT22;59475;52.464;13.590;2023-03-25T18:41:00;9.12;88.35